sensor_id;sensor_type;location;lat;lon;timestamp;P1;durP1;ratioP1;P2;durP2;ratioP2
77091;SDS011;66032;48.252;11.638;2023-05-02T00:01:20;4.93;;;3.03;;
77091;SDS011;66032;48.252;11.638;2023-05-02T00:03:48;5.30;;;3.50;;
77091;SDS011;66032;48.252;11.638;2023-05-02T00:06:15;5.32;;;3.50;;
77091;SDS011;66032;48.252;11.638;2023-05-02T00:08:42;5.70;;;3.70;;
77091;SDS011;66032;48.252;11.638;2023-05-02T00:11:10;6.10;;;4.18;;
77091;SDS011;66032;48.252;11.638;2023-05-02T00:13:37;6.05;;;4.10;;
77091;SDS011;66032;48.252;11.638;2023-05-02T00:16:05;5.43;;;3.90;;
77091;SDS011;66032;48.252;11.638;2023-05-02T00:18:32;5.47;;;3.70;;
77091;SDS011;66032;48.252;11.638;2023-05-02T00:21:00;6.65;;;4.03;;
77091;SDS011;66032;48.252;11.638;2023-05-02T00:23:27;5.93;;;4.20;;
77091;SDS011;66032;48.252;11.638;2023-05-02T00:25:54;5.63;;;3.67;;
77091;SDS011;66032;48.252;11.638;2023-05-02T00:28:21;4.93;;;3.50;;
77091;SDS011;66032;48.252;11.638;2023-05-02T00:30:49;6.05;;;4.20;;
77091;SDS011;66032;48.252;11.638;2023-05-02T00:33:16;5.65;;;3.95;;
77091;SDS011;66032;48.252;11.638;2023-05-02T00:35:43;6.35;;;4.35;;
77091;SDS011;66032;48.252;11.638;2023-05-02T00:38:11;6.50;;;4.18;;
77091;SDS011;66032;48.252;11.638;2023-05-02T00:40:42;6.10;;;4.13;;
77091;SDS011;66032;48.252;11.638;2023-05-02T00:43:14;6.30;;;4.32;;
77091;SDS011;66032;48.252;11.638;2023-05-02T00:45:42;6.38;;;4.50;;
77091;SDS011;66032;48.252;11.638;2023-05-02T00:48:10;5.80;;;4.10;;
77091;SDS011;66032;48.252;11.638;2023-05-02T00:50:39;6.50;;;4.20;;
77091;SDS011;66032;48.252;11.638;2023-05-02T00:53:09;6.07;;;4.40;;
77091;SDS011;66032;48.252;11.638;2023-05-02T00:55:36;5.32;;;3.72;;
77091;SDS011;66032;48.252;11.638;2023-05-02T00:58:06;7.07;;;4.20;;
77091;SDS011;66032;48.252;11.638;2023-05-02T01:03:14;5.90;;;4.05;;
77091;SDS011;66032;48.252;11.638;2023-05-02T01:08:52;6.30;;;4.35;;
77091;SDS011;66032;48.252;11.638;2023-05-02T01:11:43;6.28;;;4.35;;
77091;SDS011;66032;48.252;11.638;2023-05-02T01:14:19;7.85;;;4.68;;
77091;SDS011;66032;48.252;11.638;2023-05-02T01:16:48;6.53;;;4.32;;
77091;SDS011;66032;48.252;11.638;2023-05-02T01:19:20;7.05;;;4.80;;
77091;SDS011;66032;48.252;11.638;2023-05-02T01:21:55;6.85;;;4.68;;
77091;SDS011;66032;48.252;11.638;2023-05-02T01:24:27;8.27;;;5.10;;
77091;SDS011;66032;48.252;11.638;2023-05-02T01:27:29;7.50;;;5.15;;
77091;SDS011;66032;48.252;11.638;2023-05-02T01:30:09;7.82;;;5.45;;
77091;SDS011;66032;48.252;11.638;2023-05-02T01:32:39;7.28;;;4.95;;
77091;SDS011;66032;48.252;11.638;2023-05-02T01:35:09;7.22;;;4.80;;
77091;SDS011;66032;48.252;11.638;2023-05-02T01:37:40;7.80;;;5.32;;
77091;SDS011;66032;48.252;11.638;2023-05-02T01:40:10;7.50;;;4.10;;
77091;SDS011;66032;48.252;11.638;2023-05-02T01:42:44;7.38;;;4.97;;
77091;SDS011;66032;48.252;11.638;2023-05-02T01:45:14;7.03;;;4.50;;
77091;SDS011;66032;48.252;11.638;2023-05-02T01:47:42;7.10;;;4.93;;
77091;SDS011;66032;48.252;11.638;2023-05-02T01:50:11;7.40;;;4.47;;
77091;SDS011;66032;48.252;11.638;2023-05-02T01:52:43;7.40;;;4.30;;
77091;SDS011;66032;48.252;11.638;2023-05-02T01:55:13;6.78;;;4.57;;
77091;SDS011;66032;48.252;11.638;2023-05-02T01:57:43;5.38;;;3.50;;
77091;SDS011;66032;48.252;11.638;2023-05-02T02:00:15;6.22;;;4.20;;
77091;SDS011;66032;48.252;11.638;2023-05-02T02:02:45;6.05;;;3.95;;
77091;SDS011;66032;48.252;11.638;2023-05-02T02:05:13;6.55;;;4.03;;
77091;SDS011;66032;48.252;11.638;2023-05-02T02:07:43;6.50;;;3.88;;
77091;SDS011;66032;48.252;11.638;2023-05-02T02:10:10;6.30;;;3.88;;
77091;SDS011;66032;48.252;11.638;2023-05-02T02:12:44;6.15;;;3.88;;
77091;SDS011;66032;48.252;11.638;2023-05-02T02:15:24;6.78;;;4.40;;
77091;SDS011;66032;48.252;11.638;2023-05-02T02:17:59;5.60;;;3.80;;
77091;SDS011;66032;48.252;11.638;2023-05-02T02:20:31;6.93;;;4.68;;
77091;SDS011;66032;48.252;11.638;2023-05-02T02:23:02;6.07;;;3.92;;
77091;SDS011;66032;48.252;11.638;2023-05-02T02:25:34;5.47;;;3.70;;
77091;SDS011;66032;48.252;11.638;2023-05-02T02:28:02;6.45;;;4.65;;
77091;SDS011;66032;48.252;11.638;2023-05-02T02:30:30;6.55;;;4.30;;
77091;SDS011;66032;48.252;11.638;2023-05-02T02:32:57;5.38;;;3.75;;
77091;SDS011;66032;48.252;11.638;2023-05-02T02:35:25;6.57;;;4.50;;
77091;SDS011;66032;48.252;11.638;2023-05-02T02:40:55;6.20;;;4.47;;
77091;SDS011;66032;48.252;11.638;2023-05-02T02:49:50;6.85;;;4.82;;
77091;SDS011;66032;48.252;11.638;2023-05-02T02:52:17;5.88;;;3.80;;
77091;SDS011;66032;48.252;11.638;2023-05-02T02:54:58;5.97;;;3.80;;
77091;SDS011;66032;48.252;11.638;2023-05-02T03:02:32;5.25;;;3.50;;
77091;SDS011;66032;48.252;11.638;2023-05-02T03:05:03;4.93;;;3.35;;
77091;SDS011;66032;48.252;11.638;2023-05-02T03:07:33;5.45;;;3.45;;
77091;SDS011;66032;48.252;11.638;2023-05-02T03:10:04;5.13;;;2.63;;
77091;SDS011;66032;48.252;11.638;2023-05-02T03:12:34;6.50;;;4.35;;
77091;SDS011;66032;48.252;11.638;2023-05-02T03:17:46;5.03;;;3.22;;
77091;SDS011;66032;48.252;11.638;2023-05-02T03:20:13;5.18;;;3.00;;
77091;SDS011;66032;48.252;11.638;2023-05-02T03:22:40;6.30;;;4.20;;
77091;SDS011;66032;48.252;11.638;2023-05-02T03:25:08;6.07;;;3.75;;
77091;SDS011;66032;48.252;11.638;2023-05-02T03:27:40;6.13;;;3.60;;
77091;SDS011;66032;48.252;11.638;2023-05-02T03:30:09;5.47;;;3.70;;
77091;SDS011;66032;48.252;11.638;2023-05-02T03:32:37;6.05;;;3.75;;
77091;SDS011;66032;48.252;11.638;2023-05-02T03:35:05;5.88;;;3.35;;
77091;SDS011;66032;48.252;11.638;2023-05-02T03:37:38;5.15;;;3.25;;
77091;SDS011;66032;48.252;11.638;2023-05-02T03:40:05;6.22;;;4.18;;
77091;SDS011;66032;48.252;11.638;2023-05-02T03:42:33;5.15;;;3.40;;
77091;SDS011;66032;48.252;11.638;2023-05-02T03:45:16;6.97;;;4.57;;
77091;SDS011;66032;48.252;11.638;2023-05-02T03:47:46;5.25;;;3.20;;
77091;SDS011;66032;48.252;11.638;2023-05-02T03:50:13;7.45;;;4.70;;
77091;SDS011;66032;48.252;11.638;2023-05-02T03:52:44;5.38;;;3.50;;
77091;SDS011;66032;48.252;11.638;2023-05-02T03:55:14;6.15;;;3.95;;
77091;SDS011;66032;48.252;11.638;2023-05-02T03:57:41;6.10;;;4.22;;
77091;SDS011;66032;48.252;11.638;2023-05-02T04:00:11;8.07;;;5.10;;
77091;SDS011;66032;48.252;11.638;2023-05-02T04:02:45;6.38;;;3.70;;
77091;SDS011;66032;48.252;11.638;2023-05-02T04:05:17;9.85;;;6.05;;
77091;SDS011;66032;48.252;11.638;2023-05-02T04:07:47;7.05;;;4.15;;
77091;SDS011;66032;48.252;11.638;2023-05-02T04:10:14;7.40;;;4.75;;
77091;SDS011;66032;48.252;11.638;2023-05-02T04:12:52;6.68;;;4.13;;
77091;SDS011;66032;48.252;11.638;2023-05-02T04:15:20;6.05;;;4.03;;
77091;SDS011;66032;48.252;11.638;2023-05-02T04:17:49;7.63;;;5.00;;
77091;SDS011;66032;48.252;11.638;2023-05-02T04:20:18;8.55;;;4.97;;
77091;SDS011;66032;48.252;11.638;2023-05-02T04:22:49;10.45;;;6.50;;
77091;SDS011;66032;48.252;11.638;2023-05-02T04:25:16;8.68;;;5.88;;
77091;SDS011;66032;48.252;11.638;2023-05-02T04:27:44;10.30;;;6.70;;
77091;SDS011;66032;48.252;11.638;2023-05-02T04:30:15;6.80;;;4.63;;
77091;SDS011;66032;48.252;11.638;2023-05-02T04:32:50;9.90;;;6.55;;
77091;SDS011;66032;48.252;11.638;2023-05-02T04:35:18;9.98;;;6.40;;
77091;SDS011;66032;48.252;11.638;2023-05-02T04:37:46;8.50;;;5.45;;
77091;SDS011;66032;48.252;11.638;2023-05-02T04:40:15;7.95;;;5.47;;
77091;SDS011;66032;48.252;11.638;2023-05-02T04:42:46;8.68;;;5.70;;
77091;SDS011;66032;48.252;11.638;2023-05-02T04:45:19;8.77;;;5.45;;
77091;SDS011;66032;48.252;11.638;2023-05-02T04:47:48;7.82;;;5.43;;
77091;SDS011;66032;48.252;11.638;2023-05-02T04:50:16;7.32;;;5.18;;
77091;SDS011;66032;48.252;11.638;2023-05-02T04:52:43;7.03;;;4.75;;
77091;SDS011;66032;48.252;11.638;2023-05-02T04:55:10;6.45;;;4.70;;
77091;SDS011;66032;48.252;11.638;2023-05-02T04:57:38;6.45;;;4.70;;
77091;SDS011;66032;48.252;11.638;2023-05-02T05:00:10;7.22;;;4.50;;
77091;SDS011;66032;48.252;11.638;2023-05-02T05:02:38;6.85;;;4.75;;
77091;SDS011;66032;48.252;11.638;2023-05-02T05:05:07;7.50;;;4.45;;
77091;SDS011;66032;48.252;11.638;2023-05-02T05:07:34;5.70;;;4.25;;
77091;SDS011;66032;48.252;11.638;2023-05-02T05:10:02;5.28;;;3.42;;
77091;SDS011;66032;48.252;11.638;2023-05-02T05:12:37;6.22;;;4.60;;
77091;SDS011;66032;48.252;11.638;2023-05-02T05:15:05;7.07;;;4.60;;
77091;SDS011;66032;48.252;11.638;2023-05-02T05:17:33;5.55;;;4.03;;
77091;SDS011;66032;48.252;11.638;2023-05-02T05:20:02;5.97;;;4.30;;
77091;SDS011;66032;48.252;11.638;2023-05-02T05:22:30;5.53;;;3.70;;
77091;SDS011;66032;48.252;11.638;2023-05-02T05:24:57;5.20;;;3.63;;
77091;SDS011;66032;48.252;11.638;2023-05-02T05:27:29;4.50;;;3.22;;
77091;SDS011;66032;48.252;11.638;2023-05-02T05:29:56;4.60;;;3.38;;
77091;SDS011;66032;48.252;11.638;2023-05-02T05:32:24;5.13;;;3.53;;
77091;SDS011;66032;48.252;11.638;2023-05-02T05:34:52;5.20;;;3.53;;
77091;SDS011;66032;48.252;11.638;2023-05-02T05:37:22;5.53;;;3.72;;
77091;SDS011;66032;48.252;11.638;2023-05-02T05:39:49;5.18;;;3.60;;
77091;SDS011;66032;48.252;11.638;2023-05-02T05:42:17;4.45;;;3.15;;
77091;SDS011;66032;48.252;11.638;2023-05-02T05:44:48;4.75;;;3.63;;
77091;SDS011;66032;48.252;11.638;2023-05-02T05:47:19;5.45;;;4.00;;
77091;SDS011;66032;48.252;11.638;2023-05-02T05:49:55;5.93;;;3.67;;
77091;SDS011;66032;48.252;11.638;2023-05-02T05:52:26;6.60;;;3.63;;
77091;SDS011;66032;48.252;11.638;2023-05-02T05:54:55;5.97;;;3.70;;
77091;SDS011;66032;48.252;11.638;2023-05-02T05:57:24;5.32;;;3.70;;
77091;SDS011;66032;48.252;11.638;2023-05-02T05:59:53;5.82;;;3.78;;
77091;SDS011;66032;48.252;11.638;2023-05-02T06:02:21;6.90;;;3.45;;
77091;SDS011;66032;48.252;11.638;2023-05-02T06:04:49;5.63;;;3.83;;
77091;SDS011;66032;48.252;11.638;2023-05-02T06:07:20;6.03;;;3.63;;
77091;SDS011;66032;48.252;11.638;2023-05-02T06:09:47;5.43;;;3.35;;
77091;SDS011;66032;48.252;11.638;2023-05-02T06:12:15;5.75;;;3.70;;
77091;SDS011;66032;48.252;11.638;2023-05-02T06:14:44;5.22;;;3.47;;
77091;SDS011;66032;48.252;11.638;2023-05-02T06:17:12;4.63;;;3.10;;
77091;SDS011;66032;48.252;11.638;2023-05-02T06:19:40;5.28;;;3.75;;
77091;SDS011;66032;48.252;11.638;2023-05-02T06:22:07;4.60;;;3.13;;
77091;SDS011;66032;48.252;11.638;2023-05-02T06:24:38;5.30;;;3.88;;
77091;SDS011;66032;48.252;11.638;2023-05-02T06:27:05;5.65;;;3.70;;
77091;SDS011;66032;48.252;11.638;2023-05-02T06:29:33;4.72;;;3.50;;
77091;SDS011;66032;48.252;11.638;2023-05-02T06:32:00;5.22;;;3.80;;
77091;SDS011;66032;48.252;11.638;2023-05-02T06:34:30;5.55;;;3.70;;
77091;SDS011;66032;48.252;11.638;2023-05-02T06:36:59;4.47;;;3.00;;
77091;SDS011;66032;48.252;11.638;2023-05-02T06:39:26;4.97;;;3.75;;
77091;SDS011;66032;48.252;11.638;2023-05-02T06:41:56;5.30;;;3.55;;
77091;SDS011;66032;48.252;11.638;2023-05-02T06:44:25;4.95;;;3.70;;
77091;SDS011;66032;48.252;11.638;2023-05-02T06:46:53;4.35;;;3.40;;
77091;SDS011;66032;48.252;11.638;2023-05-02T06:49:21;4.70;;;3.08;;
77091;SDS011;66032;48.252;11.638;2023-05-02T06:51:49;5.70;;;3.70;;
77091;SDS011;66032;48.252;11.638;2023-05-02T06:54:16;5.10;;;3.72;;
77091;SDS011;66032;48.252;11.638;2023-05-02T06:56:43;4.32;;;3.35;;
77091;SDS011;66032;48.252;11.638;2023-05-02T06:59:11;6.53;;;4.13;;
77091;SDS011;66032;48.252;11.638;2023-05-02T07:01:39;7.05;;;4.85;;
77091;SDS011;66032;48.252;11.638;2023-05-02T07:04:06;5.82;;;3.67;;
77091;SDS011;66032;48.252;11.638;2023-05-02T07:06:33;6.00;;;4.10;;
77091;SDS011;66032;48.252;11.638;2023-05-02T07:09:01;5.47;;;4.05;;
77091;SDS011;66032;48.252;11.638;2023-05-02T07:11:29;5.00;;;3.67;;
77091;SDS011;66032;48.252;11.638;2023-05-02T07:13:56;5.97;;;4.20;;
77091;SDS011;66032;48.252;11.638;2023-05-02T07:16:23;6.47;;;3.90;;
77091;SDS011;66032;48.252;11.638;2023-05-02T07:18:51;4.68;;;3.15;;
77091;SDS011;66032;48.252;11.638;2023-05-02T07:21:18;5.20;;;3.33;;
77091;SDS011;66032;48.252;11.638;2023-05-02T07:23:45;6.85;;;3.63;;
77091;SDS011;66032;48.252;11.638;2023-05-02T07:26:13;6.10;;;4.15;;
77091;SDS011;66032;48.252;11.638;2023-05-02T07:28:41;6.00;;;3.50;;
77091;SDS011;66032;48.252;11.638;2023-05-02T07:31:08;5.53;;;3.33;;
77091;SDS011;66032;48.252;11.638;2023-05-02T07:33:36;5.30;;;3.70;;
77091;SDS011;66032;48.252;11.638;2023-05-02T07:36:03;5.70;;;3.92;;
77091;SDS011;66032;48.252;11.638;2023-05-02T07:38:31;5.60;;;3.90;;
77091;SDS011;66032;48.252;11.638;2023-05-02T07:40:59;5.30;;;4.13;;
77091;SDS011;66032;48.252;11.638;2023-05-02T07:43:26;5.85;;;4.78;;
77091;SDS011;66032;48.252;11.638;2023-05-02T07:45:54;5.55;;;4.10;;
77091;SDS011;66032;48.252;11.638;2023-05-02T07:48:22;6.32;;;3.83;;
77091;SDS011;66032;48.252;11.638;2023-05-02T07:50:53;6.22;;;4.35;;
77091;SDS011;66032;48.252;11.638;2023-05-02T07:53:20;5.05;;;3.72;;
77091;SDS011;66032;48.252;11.638;2023-05-02T07:55:48;5.60;;;4.20;;
77091;SDS011;66032;48.252;11.638;2023-05-02T07:58:15;4.80;;;3.72;;
77091;SDS011;66032;48.252;11.638;2023-05-02T08:00:42;6.40;;;3.88;;
77091;SDS011;66032;48.252;11.638;2023-05-02T08:03:09;5.10;;;3.67;;
77091;SDS011;66032;48.252;11.638;2023-05-02T08:05:37;5.30;;;3.90;;
77091;SDS011;66032;48.252;11.638;2023-05-02T08:08:04;6.30;;;3.95;;
77091;SDS011;66032;48.252;11.638;2023-05-02T08:10:32;5.60;;;4.13;;
77091;SDS011;66032;48.252;11.638;2023-05-02T08:12:59;5.38;;;4.10;;
77091;SDS011;66032;48.252;11.638;2023-05-02T08:15:26;5.00;;;3.65;;
77091;SDS011;66032;48.252;11.638;2023-05-02T08:17:54;5.75;;;3.83;;
77091;SDS011;66032;48.252;11.638;2023-05-02T08:20:21;5.35;;;4.30;;
77091;SDS011;66032;48.252;11.638;2023-05-02T08:22:49;5.78;;;3.80;;
77091;SDS011;66032;48.252;11.638;2023-05-02T08:25:17;5.32;;;4.25;;
77091;SDS011;66032;48.252;11.638;2023-05-02T08:27:44;6.57;;;4.10;;
77091;SDS011;66032;48.252;11.638;2023-05-02T08:30:12;6.57;;;4.78;;
77091;SDS011;66032;48.252;11.638;2023-05-02T08:32:40;5.07;;;3.70;;
77091;SDS011;66032;48.252;11.638;2023-05-02T08:35:07;5.05;;;3.35;;
77091;SDS011;66032;48.252;11.638;2023-05-02T08:37:35;5.50;;;3.58;;
77091;SDS011;66032;48.252;11.638;2023-05-02T08:40:02;4.95;;;3.67;;
77091;SDS011;66032;48.252;11.638;2023-05-02T08:42:31;4.88;;;4.07;;
77091;SDS011;66032;48.252;11.638;2023-05-02T08:45:00;5.95;;;4.10;;
77091;SDS011;66032;48.252;11.638;2023-05-02T08:47:28;5.50;;;3.60;;
77091;SDS011;66032;48.252;11.638;2023-05-02T08:49:57;5.28;;;4.35;;
77091;SDS011;66032;48.252;11.638;2023-05-02T08:52:26;4.75;;;3.40;;
77091;SDS011;66032;48.252;11.638;2023-05-02T08:54:54;4.50;;;3.72;;
77091;SDS011;66032;48.252;11.638;2023-05-02T08:57:22;4.47;;;3.67;;
77091;SDS011;66032;48.252;11.638;2023-05-02T08:59:50;5.43;;;3.97;;
77091;SDS011;66032;48.252;11.638;2023-05-02T09:05:18;6.20;;;4.15;;
77091;SDS011;66032;48.252;11.638;2023-05-02T09:07:50;5.25;;;3.80;;
77091;SDS011;66032;48.252;11.638;2023-05-02T09:10:18;5.20;;;3.70;;
77091;SDS011;66032;48.252;11.638;2023-05-02T09:12:47;4.97;;;4.00;;
77091;SDS011;66032;48.252;11.638;2023-05-02T09:15:15;6.35;;;3.80;;
77091;SDS011;66032;48.252;11.638;2023-05-02T09:17:46;7.20;;;4.00;;
77091;SDS011;66032;48.252;11.638;2023-05-02T09:20:15;6.38;;;4.30;;
77091;SDS011;66032;48.252;11.638;2023-05-02T09:22:49;5.97;;;4.00;;
77091;SDS011;66032;48.252;11.638;2023-05-02T09:25:21;5.82;;;4.53;;
77091;SDS011;66032;48.252;11.638;2023-05-02T09:27:49;5.78;;;4.10;;
77091;SDS011;66032;48.252;11.638;2023-05-02T09:32:49;5.63;;;3.90;;
77091;SDS011;66032;48.252;11.638;2023-05-02T09:35:17;6.55;;;4.20;;
77091;SDS011;66032;48.252;11.638;2023-05-02T09:37:50;5.68;;;4.13;;
77091;SDS011;66032;48.252;11.638;2023-05-02T09:40:22;4.82;;;3.90;;
77091;SDS011;66032;48.252;11.638;2023-05-02T09:42:50;5.35;;;4.47;;
77091;SDS011;66032;48.252;11.638;2023-05-02T09:45:22;7.18;;;4.30;;
77091;SDS011;66032;48.252;11.638;2023-05-02T09:50:31;7.07;;;4.30;;
77091;SDS011;66032;48.252;11.638;2023-05-02T09:53:04;6.80;;;4.28;;
77091;SDS011;66032;48.252;11.638;2023-05-02T09:55:34;5.55;;;4.28;;
77091;SDS011;66032;48.252;11.638;2023-05-02T09:58:02;5.60;;;4.22;;
77091;SDS011;66032;48.252;11.638;2023-05-02T10:00:42;4.90;;;3.95;;
77091;SDS011;66032;48.252;11.638;2023-05-02T10:03:11;5.47;;;4.50;;
77091;SDS011;66032;48.252;11.638;2023-05-02T10:05:42;5.90;;;3.97;;
77091;SDS011;66032;48.252;11.638;2023-05-02T10:08:11;5.32;;;4.22;;
77091;SDS011;66032;48.252;11.638;2023-05-02T10:10:40;4.40;;;3.72;;
77091;SDS011;66032;48.252;11.638;2023-05-02T10:13:11;5.25;;;3.88;;
77091;SDS011;66032;48.252;11.638;2023-05-02T10:15:43;5.30;;;4.00;;
77091;SDS011;66032;48.252;11.638;2023-05-02T10:18:11;4.72;;;4.03;;
77091;SDS011;66032;48.252;11.638;2023-05-02T10:20:47;5.90;;;4.60;;
77091;SDS011;66032;48.252;11.638;2023-05-02T10:23:20;4.97;;;3.33;;
77091;SDS011;66032;48.252;11.638;2023-05-02T10:25:51;4.88;;;4.00;;
77091;SDS011;66032;48.252;11.638;2023-05-02T10:28:19;5.95;;;3.72;;
77091;SDS011;66032;48.252;11.638;2023-05-02T10:30:46;5.35;;;4.03;;
77091;SDS011;66032;48.252;11.638;2023-05-02T10:33:16;5.97;;;4.70;;
77091;SDS011;66032;48.252;11.638;2023-05-02T10:35:45;6.40;;;4.32;;
77091;SDS011;66032;48.252;11.638;2023-05-02T10:38:14;5.35;;;4.60;;
77091;SDS011;66032;48.252;11.638;2023-05-02T10:43:32;7.97;;;4.85;;
77091;SDS011;66032;48.252;11.638;2023-05-02T10:46:01;6.85;;;5.25;;
77091;SDS011;66032;48.252;11.638;2023-05-02T10:48:32;6.97;;;5.35;;
77091;SDS011;66032;48.252;11.638;2023-05-02T10:51:00;5.72;;;4.57;;
77091;SDS011;66032;48.252;11.638;2023-05-02T10:53:32;7.65;;;6.07;;
77091;SDS011;66032;48.252;11.638;2023-05-02T10:56:16;7.25;;;5.53;;
77091;SDS011;66032;48.252;11.638;2023-05-02T10:58:44;7.20;;;5.57;;
77091;SDS011;66032;48.252;11.638;2023-05-02T11:04:05;6.88;;;5.50;;
77091;SDS011;66032;48.252;11.638;2023-05-02T11:06:34;8.07;;;5.60;;
77091;SDS011;66032;48.252;11.638;2023-05-02T11:11:44;8.35;;;6.28;;
77091;SDS011;66032;48.252;11.638;2023-05-02T11:14:41;7.47;;;6.30;;
77091;SDS011;66032;48.252;11.638;2023-05-02T11:17:06;8.48;;;6.38;;
77091;SDS011;66032;48.252;11.638;2023-05-02T11:24:44;7.88;;;5.85;;
77091;SDS011;66032;48.252;11.638;2023-05-02T11:30:00;6.32;;;5.30;;
77091;SDS011;66032;48.252;11.638;2023-05-02T11:35:25;7.80;;;5.50;;
77091;SDS011;66032;48.252;11.638;2023-05-02T11:37:57;6.35;;;4.80;;
77091;SDS011;66032;48.252;11.638;2023-05-02T11:40:26;7.82;;;5.88;;
77091;SDS011;66032;48.252;11.638;2023-05-02T11:42:55;7.22;;;6.00;;
77091;SDS011;66032;48.252;11.638;2023-05-02T11:45:33;6.43;;;5.68;;
77091;SDS011;66032;48.252;11.638;2023-05-02T11:48:12;6.40;;;5.22;;
77091;SDS011;66032;48.252;11.638;2023-05-02T11:50:42;6.45;;;5.43;;
77091;SDS011;66032;48.252;11.638;2023-05-02T11:53:18;6.20;;;5.38;;
77091;SDS011;66032;48.252;11.638;2023-05-02T11:55:54;6.13;;;5.13;;
77091;SDS011;66032;48.252;11.638;2023-05-02T11:58:27;6.57;;;5.03;;
77091;SDS011;66032;48.252;11.638;2023-05-02T12:00:56;9.48;;;5.55;;
77091;SDS011;66032;48.252;11.638;2023-05-02T12:06:10;6.97;;;5.30;;
77091;SDS011;66032;48.252;11.638;2023-05-02T12:11:13;6.00;;;4.93;;
77091;SDS011;66032;48.252;11.638;2023-05-02T12:13:45;6.63;;;5.50;;
77091;SDS011;66032;48.252;11.638;2023-05-02T12:16:14;7.00;;;5.45;;
77091;SDS011;66032;48.252;11.638;2023-05-02T12:18:43;6.80;;;5.57;;
77091;SDS011;66032;48.252;11.638;2023-05-02T12:21:11;8.05;;;5.07;;
77091;SDS011;66032;48.252;11.638;2023-05-02T12:23:38;5.90;;;5.07;;
77091;SDS011;66032;48.252;11.638;2023-05-02T12:26:20;6.43;;;4.82;;
77091;SDS011;66032;48.252;11.638;2023-05-02T12:28:57;6.15;;;5.40;;
77091;SDS011;66032;48.252;11.638;2023-05-02T12:31:24;6.47;;;5.10;;
77091;SDS011;66032;48.252;11.638;2023-05-02T12:33:53;7.63;;;6.18;;
77091;SDS011;66032;48.252;11.638;2023-05-02T12:36:23;11.98;;;5.70;;
77091;SDS011;66032;48.252;11.638;2023-05-02T12:38:51;6.75;;;5.43;;
77091;SDS011;66032;48.252;11.638;2023-05-02T12:41:34;6.15;;;4.75;;
77091;SDS011;66032;48.252;11.638;2023-05-02T12:44:06;5.53;;;4.60;;
77091;SDS011;66032;48.252;11.638;2023-05-02T12:46:33;6.97;;;6.00;;
77091;SDS011;66032;48.252;11.638;2023-05-02T12:49:06;5.85;;;4.40;;
77091;SDS011;66032;48.252;11.638;2023-05-02T12:51:35;6.95;;;5.57;;
77091;SDS011;66032;48.252;11.638;2023-05-02T12:54:03;9.05;;;6.10;;
77091;SDS011;66032;48.252;11.638;2023-05-02T12:56:39;8.07;;;6.60;;
77091;SDS011;66032;48.252;11.638;2023-05-02T12:59:07;6.68;;;5.97;;
77091;SDS011;66032;48.252;11.638;2023-05-02T13:01:35;8.27;;;6.53;;
77091;SDS011;66032;48.252;11.638;2023-05-02T13:04:02;8.45;;;6.00;;
77091;SDS011;66032;48.252;11.638;2023-05-02T13:06:31;7.97;;;5.80;;
77091;SDS011;66032;48.252;11.638;2023-05-02T13:08:58;8.05;;;6.30;;
77091;SDS011;66032;48.252;11.638;2023-05-02T13:11:26;7.97;;;6.60;;
77091;SDS011;66032;48.252;11.638;2023-05-02T13:13:53;7.72;;;5.93;;
77091;SDS011;66032;48.252;11.638;2023-05-02T13:16:21;7.65;;;5.18;;
77091;SDS011;66032;48.252;11.638;2023-05-02T13:18:49;5.78;;;4.60;;
77091;SDS011;66032;48.252;11.638;2023-05-02T13:21:16;5.88;;;4.32;;
77091;SDS011;66032;48.252;11.638;2023-05-02T13:23:45;7.35;;;4.82;;
77091;SDS011;66032;48.252;11.638;2023-05-02T13:26:13;7.97;;;5.80;;
77091;SDS011;66032;48.252;11.638;2023-05-02T13:28:41;9.45;;;6.32;;
77091;SDS011;66032;48.252;11.638;2023-05-02T13:31:08;9.45;;;7.10;;
77091;SDS011;66032;48.252;11.638;2023-05-02T13:33:35;13.80;;;7.07;;
77091;SDS011;66032;48.252;11.638;2023-05-02T13:36:02;12.40;;;7.05;;
77091;SDS011;66032;48.252;11.638;2023-05-02T13:38:30;15.65;;;7.45;;
77091;SDS011;66032;48.252;11.638;2023-05-02T13:40:58;25.98;;;10.30;;
77091;SDS011;66032;48.252;11.638;2023-05-02T13:43:25;26.60;;;10.10;;
77091;SDS011;66032;48.252;11.638;2023-05-02T13:45:53;20.38;;;8.77;;
77091;SDS011;66032;48.252;11.638;2023-05-02T13:48:20;20.23;;;8.32;;
77091;SDS011;66032;48.252;11.638;2023-05-02T13:50:48;28.00;;;10.35;;
77091;SDS011;66032;48.252;11.638;2023-05-02T13:53:15;24.67;;;11.48;;
77091;SDS011;66032;48.252;11.638;2023-05-02T13:55:43;22.77;;;10.27;;
77091;SDS011;66032;48.252;11.638;2023-05-02T13:58:10;22.60;;;11.40;;
77091;SDS011;66032;48.252;11.638;2023-05-02T14:00:37;23.13;;;10.93;;
77091;SDS011;66032;48.252;11.638;2023-05-02T14:03:05;23.13;;;10.88;;
77091;SDS011;66032;48.252;11.638;2023-05-02T14:05:32;20.60;;;11.18;;
77091;SDS011;66032;48.252;11.638;2023-05-02T14:08:00;16.85;;;9.60;;
77091;SDS011;66032;48.252;11.638;2023-05-02T14:10:27;17.25;;;9.57;;
77091;SDS011;66032;48.252;11.638;2023-05-02T14:12:54;21.50;;;10.63;;
77091;SDS011;66032;48.252;11.638;2023-05-02T14:15:22;17.65;;;10.38;;
77091;SDS011;66032;48.252;11.638;2023-05-02T14:17:49;23.38;;;12.05;;
77091;SDS011;66032;48.252;11.638;2023-05-02T14:20:17;27.45;;;12.82;;
77091;SDS011;66032;48.252;11.638;2023-05-02T14:22:44;20.05;;;10.50;;
77091;SDS011;66032;48.252;11.638;2023-05-02T14:25:11;19.88;;;10.75;;
77091;SDS011;66032;48.252;11.638;2023-05-02T14:27:40;18.90;;;11.27;;
77091;SDS011;66032;48.252;11.638;2023-05-02T14:30:08;16.95;;;10.45;;
77091;SDS011;66032;48.252;11.638;2023-05-02T14:32:35;17.98;;;10.57;;
77091;SDS011;66032;48.252;11.638;2023-05-02T14:35:03;20.00;;;10.15;;
77091;SDS011;66032;48.252;11.638;2023-05-02T14:37:31;18.77;;;10.35;;
77091;SDS011;66032;48.252;11.638;2023-05-02T14:39:58;17.80;;;10.63;;
77091;SDS011;66032;48.252;11.638;2023-05-02T14:42:26;18.85;;;10.20;;
77091;SDS011;66032;48.252;11.638;2023-05-02T14:44:53;15.73;;;9.82;;
77091;SDS011;66032;48.252;11.638;2023-05-02T14:47:22;14.43;;;9.10;;
77091;SDS011;66032;48.252;11.638;2023-05-02T14:49:51;15.45;;;9.20;;
77091;SDS011;66032;48.252;11.638;2023-05-02T14:52:18;14.27;;;8.93;;
77091;SDS011;66032;48.252;11.638;2023-05-02T14:54:45;12.85;;;8.05;;
77091;SDS011;66032;48.252;11.638;2023-05-02T14:57:13;15.02;;;9.48;;
77091;SDS011;66032;48.252;11.638;2023-05-02T14:59:41;13.27;;;8.90;;
77091;SDS011;66032;48.252;11.638;2023-05-02T15:02:08;11.73;;;7.95;;
77091;SDS011;66032;48.252;11.638;2023-05-02T15:04:36;12.02;;;8.43;;
77091;SDS011;66032;48.252;11.638;2023-05-02T15:07:03;10.50;;;6.93;;
77091;SDS011;66032;48.252;11.638;2023-05-02T15:09:31;11.25;;;7.35;;
77091;SDS011;66032;48.252;11.638;2023-05-02T15:11:58;8.60;;;6.15;;
77091;SDS011;66032;48.252;11.638;2023-05-02T15:14:26;9.35;;;6.47;;
77091;SDS011;66032;48.252;11.638;2023-05-02T15:16:53;9.25;;;6.55;;
77091;SDS011;66032;48.252;11.638;2023-05-02T15:19:21;9.93;;;6.05;;
77091;SDS011;66032;48.252;11.638;2023-05-02T15:21:51;9.57;;;6.80;;
77091;SDS011;66032;48.252;11.638;2023-05-02T15:24:23;9.82;;;7.22;;
77091;SDS011;66032;48.252;11.638;2023-05-02T15:26:50;11.02;;;7.25;;
77091;SDS011;66032;48.252;11.638;2023-05-02T15:29:18;13.57;;;8.05;;
77091;SDS011;66032;48.252;11.638;2023-05-02T15:31:46;9.60;;;7.18;;
77091;SDS011;66032;48.252;11.638;2023-05-02T15:34:13;9.52;;;6.55;;
77091;SDS011;66032;48.252;11.638;2023-05-02T15:36:41;8.50;;;6.05;;
77091;SDS011;66032;48.252;11.638;2023-05-02T15:39:08;7.65;;;5.63;;